Terminal Aerodrome Forecast
Issued by NWS

Home | Current Version | Previous Version | Text Only | Print | Product List | Glossary On
Versions: 1 2 3 4 5 6 7 8 9 10 11 12 13 14 15 16 17 18 19 20 21 22 23 24
000
FTUS46 KSEW 290900 AAA
TAFSEA
TAF AMD
KSEA 290900Z 2909/3012 02006KT P6SM SCT021 SCT035
      TEMPO 2909/2912 -SHRA BKN021 BKN035
     FM291400 03010KT P6SM BKN100
     FM292200 04014G22KT P6SM SKC=

USA.gov is the U.S. government's official web portal to all federal, state and local government web resources and services.